createdAt,value
2022-08-26T00:01:29.086Z,9.48
2022-08-26T00:04:01.357Z,10.38
2022-08-26T00:06:34.815Z,10.30
2022-08-26T00:09:08.029Z,10.30
2022-08-26T00:11:40.236Z,9.83
2022-08-26T00:14:12.186Z,9.23
2022-08-26T00:16:48.214Z,10.03
2022-08-26T00:19:18.597Z,10.15
2022-08-26T00:21:50.311Z,10.28
2022-08-26T00:24:22.669Z,10.15
2022-08-26T00:26:54.294Z,10.95
2022-08-26T00:29:26.591Z,9.70
2022-08-26T00:31:57.380Z,10.93
2022-08-26T00:34:29.321Z,9.85
2022-08-26T00:37:01.762Z,9.93
2022-08-26T00:39:32.566Z,9.95
2022-08-26T00:42:03.478Z,10.63
2022-08-26T00:44:33.977Z,10.30
2022-08-26T00:47:07.877Z,10.63
2022-08-26T00:49:44.729Z,10.80
2022-08-26T00:52:18.303Z,10.72
2022-08-26T00:54:58.137Z,10.88
2022-08-26T00:57:29.591Z,10.78
2022-08-26T01:00:02.802Z,10.85
2022-08-26T01:02:33.381Z,10.20
2022-08-26T01:05:06.649Z,10.38
2022-08-26T01:07:39.121Z,10.68
2022-08-26T01:10:14.015Z,10.15
2022-08-26T01:12:50.482Z,10.40
2022-08-26T01:15:26.884Z,10.43
2022-08-26T01:17:59.878Z,10.75
2022-08-26T01:20:39.417Z,11.45
2022-08-26T01:23:12.064Z,10.10
2022-08-26T01:25:45.626Z,10.05
2022-08-26T01:28:19.143Z,10.68
2022-08-26T01:30:52.629Z,10.75
2022-08-26T01:33:30.780Z,10.75
2022-08-26T01:36:03.348Z,11.10
2022-08-26T01:38:34.460Z,11.22
2022-08-26T01:41:16.336Z,11.50
2022-08-26T01:43:40.883Z,11.00
2022-08-26T01:46:13.092Z,10.85
2022-08-26T01:48:45.753Z,10.98
2022-08-26T01:51:19.826Z,11.88
2022-08-26T01:53:51.088Z,11.03
2022-08-26T01:56:24.757Z,10.58
2022-08-26T01:59:00.538Z,11.53
2022-08-26T02:01:31.011Z,10.80
2022-08-26T02:04:17.254Z,11.15
2022-08-26T02:06:49.427Z,12.00
2022-08-26T02:09:21.707Z,10.93
2022-08-26T02:11:52.559Z,11.00
2022-08-26T02:14:27.870Z,11.40
2022-08-26T02:16:58.653Z,11.57
2022-08-26T02:19:33.233Z,11.20
2022-08-26T02:22:06.996Z,11.53
2022-08-26T02:24:50.467Z,11.08
2022-08-26T02:27:24.317Z,11.33
2022-08-26T02:30:03.538Z,11.20
2022-08-26T02:32:34.005Z,12.25
2022-08-26T02:35:07.274Z,12.05
2022-08-26T02:37:38.044Z,12.00
2022-08-26T02:40:11.005Z,12.75
2022-08-26T02:42:42.107Z,12.15
2022-08-26T02:45:13.178Z,13.25
2022-08-26T02:47:45.888Z,12.70
2022-08-26T02:50:17.056Z,11.90
2022-08-26T02:52:49.932Z,12.93
2022-08-26T02:55:21.039Z,12.40
2022-08-26T02:57:53.200Z,12.18
2022-08-26T03:00:24.617Z,12.85
2022-08-26T03:02:56.781Z,12.82
2022-08-26T03:05:27.992Z,12.43
2022-08-26T03:07:58.570Z,12.73
2022-08-26T03:10:31.589Z,11.95
2022-08-26T03:13:05.159Z,12.15
2022-08-26T03:15:35.930Z,12.00
2022-08-26T03:18:08.623Z,11.75
2022-08-26T03:20:41.698Z,12.63
2022-08-26T03:23:12.518Z,12.43
2022-08-26T03:25:42.918Z,12.55
2022-08-26T03:28:13.944Z,12.37
2022-08-26T03:30:48.811Z,12.95
2022-08-26T03:33:19.521Z,12.65
2022-08-26T03:35:50.776Z,12.10
2022-08-26T03:38:26.079Z,12.63
2022-08-26T03:40:57.071Z,12.55
2022-08-26T03:43:27.613Z,12.70
2022-08-26T03:45:58.078Z,11.48
2022-08-26T03:48:28.555Z,11.93
2022-08-26T03:51:01.366Z,12.20
2022-08-26T03:53:33.656Z,12.47
2022-08-26T03:56:06.543Z,12.23
2022-08-26T03:58:37.582Z,12.03
2022-08-26T04:01:08.249Z,11.95
2022-08-26T04:03:57.588Z,12.28
2022-08-26T04:06:35.714Z,11.78
2022-08-26T04:09:11.676Z,13.18
2022-08-26T04:11:45.262Z,13.00
2022-08-26T04:14:20.579Z,12.88
2022-08-26T04:16:52.717Z,13.50
2022-08-26T04:19:26.066Z,11.95
2022-08-26T04:21:56.872Z,12.90
2022-08-26T04:24:28.780Z,13.40
2022-08-26T04:26:59.325Z,13.72
2022-08-26T04:29:30.448Z,13.25
2022-08-26T04:32:00.947Z,12.63
2022-08-26T04:34:32.803Z,13.03
2022-08-26T04:37:04.895Z,13.30
2022-08-26T04:39:36.256Z,13.83
2022-08-26T04:42:08.428Z,13.18
2022-08-26T04:44:39.379Z,13.48
2022-08-26T04:47:09.925Z,13.30
2022-08-26T04:49:41.970Z,13.22
2022-08-26T04:52:12.665Z,13.38
2022-08-26T04:54:43.257Z,12.58
2022-08-26T04:57:16.041Z,13.05
2022-08-26T04:59:46.629Z,13.18
2022-08-26T05:02:19.366Z,12.58
2022-08-26T05:04:49.840Z,13.65
2022-08-26T05:07:21.921Z,12.53
2022-08-26T05:09:53.372Z,13.08
2022-08-26T05:12:25.018Z,12.53
2022-08-26T05:14:57.676Z,12.23
2022-08-26T05:17:28.470Z,13.03
2022-08-26T05:19:58.959Z,12.75
2022-08-26T05:22:29.501Z,13.00
2022-08-26T05:25:00.068Z,12.70
2022-08-26T05:27:30.627Z,13.88
2022-08-26T05:30:02.864Z,12.63
2022-08-26T05:32:34.754Z,13.43
2022-08-26T05:35:08.849Z,12.80
2022-08-26T05:37:38.931Z,13.72
2022-08-26T05:40:12.606Z,13.08
2022-08-26T05:42:43.164Z,14.15
2022-08-26T05:45:15.222Z,14.00
2022-08-26T05:47:50.928Z,13.10
2022-08-26T05:50:24.377Z,13.18
2022-08-26T05:52:54.807Z,13.00
2022-08-26T05:55:26.275Z,13.15
2022-08-26T05:58:00.052Z,13.10
2022-08-26T06:00:32.255Z,13.00
2022-08-26T06:03:02.797Z,12.33
2022-08-26T06:05:38.312Z,12.23
2022-08-26T06:08:17.514Z,12.50
2022-08-26T06:10:51.446Z,12.05
2022-08-26T06:13:26.910Z,11.80
2022-08-26T06:15:59.607Z,12.13
2022-08-26T06:18:36.590Z,11.68
2022-08-26T06:21:24.859Z,11.57
2022-08-26T06:24:16.496Z,11.43
2022-08-26T06:26:53.872Z,11.48
2022-08-26T06:29:27.000Z,11.83
2022-08-26T06:31:59.195Z,12.50
2022-08-26T06:34:30.955Z,11.40
2022-08-26T06:37:06.409Z,12.00
2022-08-26T06:39:41.041Z,11.93
2022-08-26T06:42:11.877Z,12.00
2022-08-26T06:44:44.649Z,11.73
2022-08-26T06:47:15.177Z,11.73
2022-08-26T06:49:45.652Z,12.30
2022-08-26T06:52:22.515Z,12.35
2022-08-26T06:54:49.882Z,11.80
2022-08-26T06:57:21.589Z,11.43
2022-08-26T06:59:52.037Z,12.35
2022-08-26T07:02:23.783Z,12.40
2022-08-26T07:04:56.975Z,12.58
2022-08-26T07:07:27.483Z,12.10
2022-08-26T07:09:58.583Z,12.45
2022-08-26T07:12:29.200Z,11.65
2022-08-26T07:15:01.442Z,12.00
2022-08-26T07:17:32.201Z,11.28
2022-08-26T07:20:06.919Z,12.03
2022-08-26T07:22:40.204Z,10.68
2022-08-26T07:25:12.423Z,11.18
2022-08-26T07:27:43.245Z,10.60
2022-08-26T07:30:15.532Z,11.08
2022-08-26T07:32:45.893Z,10.80
2022-08-26T07:35:19.334Z,10.82
2022-08-26T07:37:52.837Z,11.73
2022-08-26T07:40:22.226Z,11.03
2022-08-26T07:42:53.338Z,11.15
2022-08-26T07:45:23.955Z,10.65
2022-08-26T07:47:54.615Z,10.55
2022-08-26T07:50:49.084Z,10.90
2022-08-26T07:52:57.358Z,10.55
2022-08-26T07:55:27.958Z,10.95
2022-08-26T07:57:59.944Z,10.03
2022-08-26T08:00:32.155Z,10.48
2022-08-26T08:03:05.886Z,10.23
2022-08-26T08:05:37.352Z,10.08
2022-08-26T08:08:26.503Z,9.95
2022-08-26T08:10:44.867Z,10.72
2022-08-26T08:13:19.162Z,9.50
2022-08-26T08:15:51.880Z,9.98
2022-08-26T08:18:23.383Z,9.93
2022-08-26T08:20:59.426Z,9.45
2022-08-26T08:23:26.207Z,9.98
2022-08-26T08:26:09.306Z,9.78
2022-08-26T08:28:41.578Z,9.45
2022-08-26T08:31:38.551Z,9.40
2022-08-26T08:34:15.909Z,9.80
2022-08-26T08:36:47.923Z,7.85
2022-08-26T08:39:19.095Z,8.10
2022-08-26T08:41:56.192Z,7.85
2022-08-26T08:47:04.633Z,7.25
2022-08-26T08:52:46.910Z,7.75
2022-08-26T08:55:18.706Z,8.00
2022-08-26T08:57:55.320Z,7.17
2022-08-26T09:00:30.776Z,8.20
2022-08-26T09:03:04.626Z,7.20
2022-08-26T09:05:45.460Z,7.47
2022-08-26T09:08:17.180Z,8.83
2022-08-26T09:10:55.174Z,7.62
2022-08-26T09:13:28.113Z,7.70
2022-08-26T09:16:01.687Z,7.30
2022-08-26T09:18:51.646Z,8.43
2022-08-26T09:21:25.300Z,7.87
2022-08-26T09:23:57.013Z,7.87
2022-08-26T09:26:50.314Z,8.35
2022-08-26T09:29:26.270Z,8.23
2022-08-26T09:32:22.043Z,7.65
2022-08-26T09:35:04.361Z,8.20
2022-08-26T09:40:34.559Z,8.38
2022-08-26T09:43:10.867Z,8.73
2022-08-26T09:45:50.727Z,8.33
2022-08-26T09:48:31.468Z,7.75
2022-08-26T09:51:08.704Z,7.08
2022-08-26T09:53:44.708Z,7.37
2022-08-26T09:56:24.032Z,7.33
2022-08-26T09:58:57.370Z,7.30
2022-08-26T10:01:36.113Z,7.55
2022-08-26T10:04:12.612Z,7.05
2022-08-26T10:06:46.351Z,7.10
2022-08-26T10:09:19.821Z,7.95
2022-08-26T10:11:55.270Z,7.85
2022-08-26T10:17:28.225Z,6.70
2022-08-26T10:20:08.013Z,7.22
2022-08-26T10:22:59.733Z,6.35
2022-08-26T10:25:36.063Z,7.50
2022-08-26T10:28:12.763Z,7.05
2022-08-26T10:30:49.512Z,7.42
2022-08-26T10:33:20.838Z,7.25
2022-08-26T10:35:56.291Z,7.17
2022-08-26T10:38:35.908Z,7.75
2022-08-26T10:41:14.320Z,7.75
2022-08-26T10:44:00.463Z,7.62
2022-08-26T10:46:40.162Z,7.80
2022-08-26T10:49:18.375Z,8.28
2022-08-26T10:52:12.371Z,8.08
2022-08-26T10:54:48.614Z,7.70
2022-08-26T10:57:24.923Z,7.60
2022-08-26T11:00:34.684Z,8.78
2022-08-26T11:03:22.555Z,8.25
2022-08-26T11:05:46.102Z,8.68
2022-08-26T11:08:25.930Z,8.18
2022-08-26T11:10:59.795Z,8.60
2022-08-26T11:13:59.711Z,8.03
2022-08-26T11:16:43.232Z,8.60
2022-08-26T11:19:13.758Z,8.03
2022-08-26T11:21:54.250Z,8.58
2022-08-26T11:24:44.577Z,8.35
2022-08-26T11:27:40.174Z,8.80
2022-08-26T11:30:18.387Z,7.87
2022-08-26T11:32:51.955Z,7.87
2022-08-26T11:35:25.516Z,7.92
2022-08-26T11:37:59.422Z,8.13
2022-08-26T11:40:37.604Z,9.23
2022-08-26T11:43:11.335Z,8.25
2022-08-26T11:45:50.170Z,8.20
2022-08-26T11:48:26.801Z,7.12
2022-08-26T11:51:02.733Z,5.05
2022-08-26T11:53:37.031Z,4.10
2022-08-26T11:56:11.880Z,4.70
2022-08-26T11:58:44.453Z,5.20
2022-08-26T12:01:17.988Z,4.35
2022-08-26T12:03:53.534Z,4.55
2022-08-26T12:06:27.699Z,4.78
2022-08-26T12:09:00.884Z,4.22
2022-08-26T12:11:35.006Z,4.53
2022-08-26T12:14:09.007Z,4.65
2022-08-26T12:16:40.734Z,5.08
2022-08-26T12:19:27.438Z,5.00
2022-08-26T12:22:07.052Z,5.10
2022-08-26T12:24:39.632Z,5.10
2022-08-26T12:27:25.651Z,4.53
2022-08-26T12:30:14.222Z,7.42
2022-08-26T12:32:56.557Z,9.93
2022-08-26T12:35:21.844Z,6.55
2022-08-26T12:37:56.564Z,6.42
2022-08-26T12:40:39.528Z,5.15
2022-08-26T12:43:12.699Z,4.42
2022-08-26T12:45:46.381Z,4.20
2022-08-26T12:48:28.996Z,4.67
2022-08-26T12:51:00.951Z,4.15
2022-08-26T12:53:34.867Z,4.50
2022-08-26T12:56:08.596Z,5.15
2022-08-26T12:58:41.634Z,5.20
2022-08-26T13:01:16.898Z,6.53
2022-08-26T13:03:47.958Z,6.22
2022-08-26T13:06:32.185Z,6.55
2022-08-26T13:09:12.412Z,6.62
2022-08-26T13:11:46.036Z,7.03
2022-08-26T13:14:23.851Z,6.80
2022-08-26T13:16:53.752Z,7.10
2022-08-26T13:19:26.822Z,7.58
2022-08-26T13:22:00.652Z,7.33
2022-08-26T13:24:36.803Z,7.83
2022-08-26T13:27:10.303Z,7.83
2022-08-26T13:29:41.541Z,8.95
2022-08-26T13:32:13.253Z,9.03
2022-08-26T13:34:51.026Z,8.10
2022-08-26T13:37:21.140Z,7.72
2022-08-26T13:39:53.547Z,8.50
2022-08-26T13:42:24.221Z,8.00
2022-08-26T13:44:56.388Z,8.80
2022-08-26T13:47:28.051Z,8.83
2022-08-26T13:49:58.829Z,9.38
2022-08-26T13:52:30.992Z,9.73
2022-08-26T13:55:01.571Z,10.10
2022-08-26T13:57:32.062Z,10.82
2022-08-26T14:00:03.618Z,11.05
2022-08-26T14:02:34.146Z,11.57
2022-08-26T14:05:05.348Z,11.30
2022-08-26T14:07:35.956Z,10.55
2022-08-26T14:10:07.080Z,10.68
2022-08-26T14:12:37.612Z,11.35
2022-08-26T14:15:09.269Z,11.83
2022-08-26T14:17:40.508Z,11.80
2022-08-26T14:20:14.319Z,10.80
2022-08-26T14:23:03.677Z,11.20
2022-08-26T14:25:18.848Z,11.80
2022-08-26T14:27:50.573Z,12.18
2022-08-26T14:30:24.939Z,12.47
2022-08-26T14:32:59.590Z,12.88
2022-08-26T14:35:32.167Z,11.33
2022-08-26T14:38:04.049Z,12.30
2022-08-26T14:40:37.856Z,11.08
2022-08-26T14:43:09.474Z,10.10
2022-08-26T14:48:14.093Z,10.28
2022-08-26T14:50:44.756Z,10.00
2022-08-26T14:53:34.093Z,9.60
2022-08-26T14:56:04.793Z,9.53
2022-08-26T14:58:38.720Z,8.05
2022-08-26T15:01:09.200Z,9.35
2022-08-26T15:03:40.453Z,10.03
2022-08-26T15:06:14.726Z,9.60
2022-08-26T15:08:47.897Z,10.95
2022-08-26T15:11:18.899Z,10.40
2022-08-26T15:13:49.564Z,12.10
2022-08-26T15:16:20.368Z,10.75
2022-08-26T15:18:51.785Z,12.03
2022-08-26T15:21:23.462Z,12.33
2022-08-26T15:23:54.798Z,12.25
2022-08-26T15:26:25.361Z,12.18
2022-08-26T15:28:56.020Z,11.48
2022-08-26T15:31:31.376Z,13.03
2022-08-26T15:34:08.552Z,12.45
2022-08-26T15:36:42.710Z,13.13
2022-08-26T15:39:13.485Z,13.62
2022-08-26T15:41:44.273Z,13.25
2022-08-26T15:44:17.101Z,13.53
2022-08-26T15:46:50.327Z,16.55
2022-08-26T15:49:21.506Z,18.80
2022-08-26T15:51:52.272Z,16.60
2022-08-26T15:54:24.507Z,18.80
2022-08-26T15:56:57.074Z,19.10
2022-08-26T15:59:27.517Z,17.75
2022-08-26T16:02:01.784Z,18.00
2022-08-26T16:04:32.539Z,17.07
2022-08-26T16:07:03.850Z,18.57
2022-08-26T16:09:34.476Z,16.40
2022-08-26T16:12:05.366Z,16.67
2022-08-26T16:14:35.919Z,15.68
2022-08-26T16:17:07.986Z,15.10
2022-08-26T16:19:38.511Z,15.95
2022-08-26T16:22:09.147Z,16.55
2022-08-26T16:24:39.680Z,16.12
2022-08-26T16:27:10.729Z,15.55
2022-08-26T16:29:41.284Z,15.93
2022-08-26T16:32:12.250Z,15.08
2022-08-26T16:34:55.212Z,13.83
2022-08-26T16:37:16.518Z,16.20
2022-08-26T16:39:47.318Z,14.55
2022-08-26T16:42:20.702Z,16.67
2022-08-26T16:44:52.513Z,16.90
2022-08-26T16:47:23.284Z,17.30
2022-08-26T16:49:54.869Z,17.87
2022-08-26T16:52:26.922Z,15.40
2022-08-26T16:55:00.261Z,18.65
2022-08-26T16:57:32.447Z,17.48
2022-08-26T17:00:05.793Z,17.62
2022-08-26T17:02:36.767Z,17.25
2022-08-26T17:05:08.745Z,16.00
2022-08-26T17:07:39.498Z,14.53
2022-08-26T17:10:11.341Z,15.70
2022-08-26T17:12:42.027Z,16.32
2022-08-26T17:15:12.988Z,15.78
2022-08-26T17:17:45.101Z,16.52
2022-08-26T17:20:17.167Z,18.07
2022-08-26T17:22:49.847Z,18.00
2022-08-26T17:25:26.272Z,19.87
2022-08-26T17:30:27.449Z,17.32
2022-08-26T17:32:59.659Z,17.82
2022-08-26T17:35:30.207Z,18.37
2022-08-26T17:38:01.010Z,18.40
2022-08-26T17:40:31.787Z,18.45
2022-08-26T17:43:02.394Z,17.15
2022-08-26T17:45:33.299Z,17.07
2022-08-26T17:48:05.533Z,18.27
2022-08-26T17:50:35.956Z,18.52
2022-08-26T17:53:06.444Z,17.67
2022-08-26T17:55:36.855Z,18.77
2022-08-26T17:58:07.977Z,17.23
2022-08-26T18:00:39.079Z,18.92
2022-08-26T18:03:09.657Z,17.82
2022-08-26T18:05:40.469Z,18.73
2022-08-26T18:08:12.367Z,18.77
2022-08-26T18:10:43.770Z,20.17
2022-08-26T18:13:16.877Z,20.40
2022-08-26T18:15:48.361Z,22.20
2022-08-26T18:18:18.795Z,20.50
2022-08-26T18:20:51.991Z,21.57
2022-08-26T18:23:21.427Z,20.25
2022-08-26T18:25:52.220Z,19.23
2022-08-26T18:28:22.904Z,20.90
2022-08-26T18:30:55.805Z,21.00
2022-08-26T18:33:27.546Z,19.87
2022-08-26T18:35:58.572Z,20.52
2022-08-26T18:38:29.467Z,19.73
2022-08-26T18:41:04.611Z,19.98
2022-08-26T18:43:36.888Z,20.77
2022-08-26T18:46:10.037Z,20.37
2022-08-26T18:48:41.805Z,21.25
2022-08-26T18:51:20.799Z,22.70
2022-08-26T18:53:51.915Z,23.80
2022-08-26T18:56:22.854Z,22.60
2022-08-26T18:58:53.409Z,21.68
2022-08-26T19:01:27.609Z,21.62
2022-08-26T19:03:59.513Z,21.37
2022-08-26T19:06:33.020Z,22.93
2022-08-26T19:09:05.625Z,23.95
2022-08-26T19:11:42.808Z,25.45
2022-08-26T19:14:13.688Z,22.95
2022-08-26T19:16:46.885Z,23.90
2022-08-26T19:19:17.951Z,21.95
2022-08-26T19:21:50.671Z,20.08
2022-08-26T19:24:23.215Z,22.35
2022-08-26T19:26:58.193Z,21.55
2022-08-26T19:29:31.984Z,21.70
2022-08-26T19:32:03.590Z,23.30
2022-08-26T19:34:34.228Z,23.50
2022-08-26T19:37:07.028Z,23.40
2022-08-26T19:39:37.751Z,25.62
2022-08-26T19:42:08.383Z,25.62
2022-08-26T19:44:59.537Z,25.00
2022-08-26T19:47:31.607Z,25.85
2022-08-26T19:50:02.101Z,23.02
2022-08-26T19:52:36.822Z,22.45
2022-08-26T19:55:10.629Z,21.93
2022-08-26T19:57:42.924Z,21.50
2022-08-26T20:00:16.788Z,19.90
2022-08-26T20:02:50.580Z,20.35
2022-08-26T20:05:23.956Z,20.75
2022-08-26T20:07:56.229Z,20.52
2022-08-26T20:10:28.423Z,19.45
2022-08-26T20:13:01.720Z,18.65
2022-08-26T20:15:32.319Z,18.20
2022-08-26T20:18:03.034Z,18.82
2022-08-26T20:20:52.486Z,18.20
2022-08-26T20:23:22.987Z,18.00
2022-08-26T20:25:55.144Z,18.30
2022-08-26T20:28:25.743Z,17.12
2022-08-26T20:30:57.094Z,17.92
2022-08-26T20:33:27.728Z,17.12
2022-08-26T20:35:58.313Z,18.12
2022-08-26T20:38:29.165Z,18.25
2022-08-26T20:41:01.293Z,18.15
2022-08-26T20:43:32.052Z,19.67
2022-08-26T20:46:17.240Z,19.37
2022-08-26T20:48:40.282Z,18.15
2022-08-26T20:51:15.542Z,17.92
2022-08-26T20:53:46.692Z,18.37
2022-08-26T20:56:20.040Z,17.32
2022-08-26T20:58:54.756Z,17.80
2022-08-26T21:01:30.881Z,16.97
2022-08-26T21:04:07.114Z,17.95
2022-08-26T21:06:38.364Z,18.35
2022-08-26T21:09:11.120Z,20.12
2022-08-26T21:11:45.498Z,18.73
2022-08-26T21:14:17.568Z,18.17
2022-08-26T21:16:48.846Z,18.05
2022-08-26T21:19:20.273Z,17.52
2022-08-26T21:21:51.025Z,16.67
2022-08-26T21:24:21.872Z,16.95
2022-08-26T21:26:52.532Z,17.12
2022-08-26T21:29:24.619Z,16.57
2022-08-26T21:31:57.627Z,15.40
2022-08-26T21:34:30.127Z,15.75
2022-08-26T21:37:00.721Z,15.63
2022-08-26T21:39:31.226Z,13.70
2022-08-26T21:42:01.788Z,14.78
2022-08-26T21:44:33.073Z,14.20
2022-08-26T21:47:04.960Z,14.58
2022-08-26T21:49:36.227Z,13.50
2022-08-26T21:52:06.846Z,13.03
2022-08-26T21:54:38.010Z,13.30
2022-08-26T21:57:08.807Z,13.28
2022-08-26T21:59:41.462Z,13.35
2022-08-26T22:02:13.545Z,13.72
2022-08-26T22:04:48.556Z,12.28
2022-08-26T22:07:17.490Z,12.37
2022-08-26T22:09:48.675Z,12.20
2022-08-26T22:12:19.227Z,11.73
2022-08-26T22:14:49.807Z,12.35
2022-08-26T22:17:21.947Z,12.00
2022-08-26T22:19:52.419Z,12.58
2022-08-26T22:22:23.151Z,12.23
2022-08-26T22:24:53.768Z,12.13
2022-08-26T22:27:24.274Z,13.13
2022-08-26T22:29:56.186Z,12.90
2022-08-26T22:32:26.653Z,12.65
2022-08-26T22:34:57.118Z,13.83
2022-08-26T22:37:28.397Z,13.55
2022-08-26T22:39:59.235Z,13.08
2022-08-26T22:42:29.683Z,12.80
2022-08-26T22:45:00.166Z,12.37
2022-08-26T22:47:30.684Z,12.93
2022-08-26T22:50:02.240Z,13.58
2022-08-26T22:52:33.187Z,12.63
2022-08-26T22:55:04.893Z,12.30
2022-08-26T22:57:35.429Z,11.75
2022-08-26T23:00:08.284Z,11.73
2022-08-26T23:02:40.620Z,12.30
2022-08-26T23:05:11.559Z,12.05
2022-08-26T23:07:42.153Z,12.78
2022-08-26T23:10:12.880Z,12.00
2022-08-26T23:12:43.457Z,12.75
2022-08-26T23:15:15.405Z,12.15
2022-08-26T23:17:47.616Z,12.73
2022-08-26T23:20:22.218Z,11.88
2022-08-26T23:22:54.324Z,12.28
2022-08-26T23:25:25.820Z,13.03
2022-08-26T23:27:56.828Z,13.53
2022-08-26T23:30:29.560Z,13.30
2022-08-26T23:33:00.211Z,12.68
2022-08-26T23:35:30.762Z,12.00
2022-08-26T23:38:01.725Z,12.30
2022-08-26T23:40:34.772Z,11.95
2022-08-26T23:43:07.563Z,13.32
2022-08-26T23:45:38.012Z,12.55
2022-08-26T23:48:11.050Z,12.55
2022-08-26T23:51:01.520Z,13.10
2022-08-26T23:53:32.162Z,12.03
2022-08-26T23:56:02.994Z,13.98
2022-08-26T23:58:33.455Z,13.22
